sensor_id;sensor_type;location;lat;lon;timestamp;P1;durP1;ratioP1;P2;durP2;ratioP2
45714;SDS011;31430;61.646;24.704;2023-05-07T00:03:27;47.65;;;44.67;;
45714;SDS011;31430;61.646;24.704;2023-05-07T00:20:40;81.35;;;76.38;;
45714;SDS011;31430;61.646;24.704;2023-05-07T00:23:05;68.85;;;64.60;;
45714;SDS011;31430;61.646;24.704;2023-05-07T00:25:31;64.18;;;60.20;;
45714;SDS011;31430;61.646;24.704;2023-05-07T00:27:56;58.00;;;54.40;;
45714;SDS011;31430;61.646;24.704;2023-05-07T00:30:27;55.83;;;52.35;;
45714;SDS011;31430;61.646;24.704;2023-05-07T00:32:53;53.90;;;50.55;;
45714;SDS011;31430;61.646;24.704;2023-05-07T00:35:19;50.65;;;47.50;;
45714;SDS011;31430;61.646;24.704;2023-05-07T00:37:44;50.03;;;46.92;;
45714;SDS011;31430;61.646;24.704;2023-05-07T00:40:10;47.17;;;44.25;;
45714;SDS011;31430;61.646;24.704;2023-05-07T00:42:36;48.15;;;45.15;;
45714;SDS011;31430;61.646;24.704;2023-05-07T00:45:02;46.70;;;43.80;;
45714;SDS011;31430;61.646;24.704;2023-05-07T00:49:53;50.03;;;46.93;;
45714;SDS011;31430;61.646;24.704;2023-05-07T00:52:19;48.17;;;45.17;;
45714;SDS011;31430;61.646;24.704;2023-05-07T00:54:46;46.65;;;43.75;;
45714;SDS011;31430;61.646;24.704;2023-05-07T00:57:13;45.88;;;43.03;;
45714;SDS011;31430;61.646;24.704;2023-05-07T00:59:39;45.63;;;42.80;;
45714;SDS011;31430;61.646;24.704;2023-05-07T01:02:06;46.67;;;43.78;;
45714;SDS011;31430;61.646;24.704;2023-05-07T01:04:32;46.20;;;43.30;;
45714;SDS011;31430;61.646;24.704;2023-05-07T01:09:24;48.70;;;45.67;;
45714;SDS011;31430;61.646;24.704;2023-05-07T01:11:50;48.38;;;45.38;;
45714;SDS011;31430;61.646;24.704;2023-05-07T01:14:17;45.97;;;43.10;;
45714;SDS011;31430;61.646;24.704;2023-05-07T01:16:45;46.72;;;43.83;;
45714;SDS011;31430;61.646;24.704;2023-05-07T01:19:11;45.55;;;42.72;;
45714;SDS011;31430;61.646;24.704;2023-05-07T01:21:42;46.15;;;43.28;;
45714;SDS011;31430;61.646;24.704;2023-05-07T01:24:11;44.75;;;41.95;;
45714;SDS011;31430;61.646;24.704;2023-05-07T01:29:03;50.08;;;46.97;;
45714;SDS011;31430;61.646;24.704;2023-05-07T01:31:29;48.80;;;45.78;;
45714;SDS011;31430;61.646;24.704;2023-05-07T01:33:55;48.28;;;45.28;;
45714;SDS011;31430;61.646;24.704;2023-05-07T01:36:24;47.28;;;44.35;;
45714;SDS011;31430;61.646;24.704;2023-05-07T01:38:52;46.03;;;43.15;;
45714;SDS011;31430;61.646;24.704;2023-05-07T01:41:18;46.35;;;43.45;;
45714;SDS011;31430;61.646;24.704;2023-05-07T01:43:44;46.92;;;44.03;;
45714;SDS011;31430;61.646;24.704;2023-05-07T01:46:11;47.08;;;44.15;;
45714;SDS011;31430;61.646;24.704;2023-05-07T01:48:38;46.15;;;43.28;;
45714;SDS011;31430;61.646;24.704;2023-05-07T01:51:04;46.78;;;43.88;;
45714;SDS011;31430;61.646;24.704;2023-05-07T01:53:39;46.70;;;43.80;;
45714;SDS011;31430;61.646;24.704;2023-05-07T01:56:09;46.67;;;43.78;;
45714;SDS011;31430;61.646;24.704;2023-05-07T02:01:00;50.47;;;47.35;;
45714;SDS011;31430;61.646;24.704;2023-05-07T02:03:26;49.63;;;46.53;;
45714;SDS011;31430;61.646;24.704;2023-05-07T02:05:51;46.92;;;44.03;;
45714;SDS011;31430;61.646;24.704;2023-05-07T02:08:17;48.72;;;45.70;;
45714;SDS011;31430;61.646;24.704;2023-05-07T02:10:43;47.97;;;44.97;;
45714;SDS011;31430;61.646;24.704;2023-05-07T02:13:08;45.60;;;42.78;;
45714;SDS011;31430;61.646;24.704;2023-05-07T02:15:34;46.90;;;44.00;;
45714;SDS011;31430;61.646;24.704;2023-05-07T02:18:02;46.30;;;43.40;;
45714;SDS011;31430;61.646;24.704;2023-05-07T02:20:29;45.58;;;42.75;;
45714;SDS011;31430;61.646;24.704;2023-05-07T02:25:21;49.92;;;46.83;;
45714;SDS011;31430;61.646;24.704;2023-05-07T02:27:46;48.25;;;45.25;;
45714;SDS011;31430;61.646;24.704;2023-05-07T02:30:13;47.08;;;44.15;;
45714;SDS011;31430;61.646;24.704;2023-05-07T02:32:39;49.03;;;45.97;;
45714;SDS011;31430;61.646;24.704;2023-05-07T02:37:31;51.58;;;48.38;;
45714;SDS011;31430;61.646;24.704;2023-05-07T02:39:56;48.53;;;45.53;;
45714;SDS011;31430;61.646;24.704;2023-05-07T02:42:22;50.38;;;47.25;;
45714;SDS011;31430;61.646;24.704;2023-05-07T02:47:13;50.45;;;47.33;;
45714;SDS011;31430;61.646;24.704;2023-05-07T02:49:42;48.35;;;45.35;;
45714;SDS011;31430;61.646;24.704;2023-05-07T02:54:33;51.25;;;48.05;;
45714;SDS011;31430;61.646;24.704;2023-05-07T02:56:59;48.47;;;45.47;;
45714;SDS011;31430;61.646;24.704;2023-05-07T02:59:25;48.05;;;45.05;;
45714;SDS011;31430;61.646;24.704;2023-05-07T03:04:17;50.10;;;47.00;;
45714;SDS011;31430;61.646;24.704;2023-05-07T03:09:08;51.50;;;48.30;;
45714;SDS011;31430;61.646;24.704;2023-05-07T03:14:00;50.53;;;47.40;;
45714;SDS011;31430;61.646;24.704;2023-05-07T03:16:26;47.95;;;44.95;;
45714;SDS011;31430;61.646;24.704;2023-05-07T03:21:18;49.97;;;46.88;;
45714;SDS011;31430;61.646;24.704;2023-05-07T03:23:44;47.90;;;44.90;;
45714;SDS011;31430;61.646;24.704;2023-05-07T03:28:35;47.97;;;44.97;;
45714;SDS011;31430;61.646;24.704;2023-05-07T03:31:01;48.28;;;45.28;;
45714;SDS011;31430;61.646;24.704;2023-05-07T03:35:53;49.00;;;45.95;;
45714;SDS011;31430;61.646;24.704;2023-05-07T03:40:44;49.28;;;46.20;;
45714;SDS011;31430;61.646;24.704;2023-05-07T03:45:35;49.20;;;46.15;;
45714;SDS011;31430;61.646;24.704;2023-05-07T03:50:26;48.10;;;45.10;;
45714;SDS011;31430;61.646;24.704;2023-05-07T03:55:17;47.55;;;44.60;;
45714;SDS011;31430;61.646;24.704;2023-05-07T03:57:43;46.53;;;43.63;;
45714;SDS011;31430;61.646;24.704;2023-05-07T04:00:09;43.75;;;41.05;;
45714;SDS011;31430;61.646;24.704;2023-05-07T04:02:35;43.70;;;41.00;;
45714;SDS011;31430;61.646;24.704;2023-05-07T04:05:01;43.20;;;40.50;;
45714;SDS011;31430;61.646;24.704;2023-05-07T04:09:52;47.67;;;44.70;;
45714;SDS011;31430;61.646;24.704;2023-05-07T04:14:43;46.72;;;43.83;;
45714;SDS011;31430;61.646;24.704;2023-05-07T04:17:09;44.40;;;41.63;;
45714;SDS011;31430;61.646;24.704;2023-05-07T04:22:01;45.67;;;42.83;;
45714;SDS011;31430;61.646;24.704;2023-05-07T04:24:27;45.08;;;42.28;;
45714;SDS011;31430;61.646;24.704;2023-05-07T04:26:55;43.90;;;41.17;;
45714;SDS011;31430;61.646;24.704;2023-05-07T04:29:21;41.92;;;39.33;;
45714;SDS011;31430;61.646;24.704;2023-05-07T04:34:12;46.10;;;43.22;;
45714;SDS011;31430;61.646;24.704;2023-05-07T04:36:39;44.85;;;42.05;;
45714;SDS011;31430;61.646;24.704;2023-05-07T04:41:31;45.28;;;42.47;;
45714;SDS011;31430;61.646;24.704;2023-05-07T04:46:23;45.30;;;42.50;;
45714;SDS011;31430;61.646;24.704;2023-05-07T04:48:49;44.78;;;41.97;;
45714;SDS011;31430;61.646;24.704;2023-05-07T04:51:16;42.65;;;40.00;;
45714;SDS011;31430;61.646;24.704;2023-05-07T04:53:42;43.30;;;40.60;;
45714;SDS011;31430;61.646;24.704;2023-05-07T04:58:33;44.78;;;41.97;;
45714;SDS011;31430;61.646;24.704;2023-05-07T05:00:59;42.92;;;40.25;;
45714;SDS011;31430;61.646;24.704;2023-05-07T05:03:25;43.58;;;40.88;;
45714;SDS011;31430;61.646;24.704;2023-05-07T05:05:51;42.38;;;39.75;;
45714;SDS011;31430;61.646;24.704;2023-05-07T05:08:18;41.47;;;38.88;;
45714;SDS011;31430;61.646;24.704;2023-05-07T05:10:43;41.45;;;38.85;;
45714;SDS011;31430;61.646;24.704;2023-05-07T05:13:09;40.10;;;37.60;;
45714;SDS011;31430;61.646;24.704;2023-05-07T05:15:37;41.35;;;38.78;;
45714;SDS011;31430;61.646;24.704;2023-05-07T05:20:29;43.80;;;41.08;;
45714;SDS011;31430;61.646;24.704;2023-05-07T05:22:55;42.28;;;39.65;;
45714;SDS011;31430;61.646;24.704;2023-05-07T05:25:21;42.30;;;39.67;;
45714;SDS011;31430;61.646;24.704;2023-05-07T05:27:46;42.33;;;39.70;;
45714;SDS011;31430;61.646;24.704;2023-05-07T05:30:12;42.15;;;39.55;;
45714;SDS011;31430;61.646;24.704;2023-05-07T05:32:38;41.25;;;38.67;;
45714;SDS011;31430;61.646;24.704;2023-05-07T05:35:04;39.88;;;37.38;;
45714;SDS011;31430;61.646;24.704;2023-05-07T05:37:30;41.10;;;38.55;;
45714;SDS011;31430;61.646;24.704;2023-05-07T05:39:56;39.20;;;36.75;;
45714;SDS011;31430;61.646;24.704;2023-05-07T05:42:22;38.63;;;36.22;;
45714;SDS011;31430;61.646;24.704;2023-05-07T05:47:13;42.50;;;39.85;;
45714;SDS011;31430;61.646;24.704;2023-05-07T05:49:39;39.67;;;37.20;;
45714;SDS011;31430;61.646;24.704;2023-05-07T05:52:05;39.38;;;36.92;;
45714;SDS011;31430;61.646;24.704;2023-05-07T05:54:31;40.38;;;37.88;;
45714;SDS011;31430;61.646;24.704;2023-05-07T05:56:56;39.53;;;37.05;;
45714;SDS011;31430;61.646;24.704;2023-05-07T05:59:22;39.15;;;36.72;;
45714;SDS011;31430;61.646;24.704;2023-05-07T06:01:48;38.75;;;36.35;;
45714;SDS011;31430;61.646;24.704;2023-05-07T06:04:14;39.35;;;36.90;;
45714;SDS011;31430;61.646;24.704;2023-05-07T06:06:39;39.25;;;36.80;;
45714;SDS011;31430;61.646;24.704;2023-05-07T06:09:05;40.25;;;37.75;;
45714;SDS011;31430;61.646;24.704;2023-05-07T06:11:31;39.70;;;37.20;;
45714;SDS011;31430;61.646;24.704;2023-05-07T06:16:24;42.33;;;39.70;;
45714;SDS011;31430;61.646;24.704;2023-05-07T06:18:50;41.60;;;39.00;;
45714;SDS011;31430;61.646;24.704;2023-05-07T06:21:15;39.67;;;37.20;;
45714;SDS011;31430;61.646;24.704;2023-05-07T06:23:41;40.00;;;37.50;;
45714;SDS011;31430;61.646;24.704;2023-05-07T06:26:07;38.85;;;36.45;;
45714;SDS011;31430;61.646;24.704;2023-05-07T06:28:33;39.78;;;37.30;;
45714;SDS011;31430;61.646;24.704;2023-05-07T06:31:11;38.50;;;36.10;;
45714;SDS011;31430;61.646;24.704;2023-05-07T06:33:41;39.17;;;36.75;;
45714;SDS011;31430;61.646;24.704;2023-05-07T06:36:08;39.95;;;37.45;;
45714;SDS011;31430;61.646;24.704;2023-05-07T06:38:33;37.10;;;34.80;;
45714;SDS011;31430;61.646;24.704;2023-05-07T06:40:59;39.35;;;36.90;;
45714;SDS011;31430;61.646;24.704;2023-05-07T06:43:25;38.33;;;35.92;;
45714;SDS011;31430;61.646;24.704;2023-05-07T06:45:50;39.30;;;36.85;;
45714;SDS011;31430;61.646;24.704;2023-05-07T06:48:16;37.78;;;35.42;;
45714;SDS011;31430;61.646;24.704;2023-05-07T06:50:41;39.15;;;36.72;;
45714;SDS011;31430;61.646;24.704;2023-05-07T06:53:07;37.60;;;35.28;;
45714;SDS011;31430;61.646;24.704;2023-05-07T06:55:33;37.33;;;35.03;;
45714;SDS011;31430;61.646;24.704;2023-05-07T06:57:59;38.08;;;35.70;;
45714;SDS011;31430;61.646;24.704;2023-05-07T07:00:26;38.33;;;35.92;;
45714;SDS011;31430;61.646;24.704;2023-05-07T07:02:53;36.38;;;34.08;;
45714;SDS011;31430;61.646;24.704;2023-05-07T07:05:19;37.88;;;35.50;;
45714;SDS011;31430;61.646;24.704;2023-05-07T07:07:45;37.25;;;34.95;;
45714;SDS011;31430;61.646;24.704;2023-05-07T07:10:17;38.67;;;36.28;;
45714;SDS011;31430;61.646;24.704;2023-05-07T07:12:44;37.13;;;34.83;;
45714;SDS011;31430;61.646;24.704;2023-05-07T07:15:10;37.75;;;35.40;;
45714;SDS011;31430;61.646;24.704;2023-05-07T07:17:36;38.40;;;36.00;;
45714;SDS011;31430;61.646;24.704;2023-05-07T07:20:02;39.65;;;37.17;;
45714;SDS011;31430;61.646;24.704;2023-05-07T07:22:28;37.38;;;35.05;;
45714;SDS011;31430;61.646;24.704;2023-05-07T07:27:19;39.90;;;37.40;;
45714;SDS011;31430;61.646;24.704;2023-05-07T07:29:45;38.92;;;36.53;;
45714;SDS011;31430;61.646;24.704;2023-05-07T07:32:11;37.38;;;35.05;;
45714;SDS011;31430;61.646;24.704;2023-05-07T07:34:36;37.45;;;35.15;;
45714;SDS011;31430;61.646;24.704;2023-05-07T07:37:02;37.85;;;35.50;;
45714;SDS011;31430;61.646;24.704;2023-05-07T07:39:31;37.42;;;35.10;;
45714;SDS011;31430;61.646;24.704;2023-05-07T07:41:57;37.33;;;35.03;;
45714;SDS011;31430;61.646;24.704;2023-05-07T07:44:23;37.40;;;35.08;;
45714;SDS011;31430;61.646;24.704;2023-05-07T07:46:48;37.25;;;34.95;;
45714;SDS011;31430;61.646;24.704;2023-05-07T07:49:15;37.35;;;35.03;;
45714;SDS011;31430;61.646;24.704;2023-05-07T07:51:41;36.65;;;34.35;;
45714;SDS011;31430;61.646;24.704;2023-05-07T07:54:06;37.90;;;35.53;;
45714;SDS011;31430;61.646;24.704;2023-05-07T07:56:33;36.58;;;34.28;;
45714;SDS011;31430;61.646;24.704;2023-05-07T07:58:59;38.25;;;35.88;;
45714;SDS011;31430;61.646;24.704;2023-05-07T08:01:25;37.53;;;35.20;;
45714;SDS011;31430;61.646;24.704;2023-05-07T08:03:51;36.80;;;34.50;;
45714;SDS011;31430;61.646;24.704;2023-05-07T08:06:16;37.65;;;35.30;;
45714;SDS011;31430;61.646;24.704;2023-05-07T08:08:42;36.17;;;33.92;;
45714;SDS011;31430;61.646;24.704;2023-05-07T08:11:08;37.38;;;35.05;;
45714;SDS011;31430;61.646;24.704;2023-05-07T08:16:01;38.53;;;36.13;;
45714;SDS011;31430;61.646;24.704;2023-05-07T08:18:26;39.15;;;36.72;;
45714;SDS011;31430;61.646;24.704;2023-05-07T08:20:54;37.10;;;34.80;;
45714;SDS011;31430;61.646;24.704;2023-05-07T08:23:20;37.05;;;34.75;;
45714;SDS011;31430;61.646;24.704;2023-05-07T08:28:11;38.28;;;35.88;;
45714;SDS011;31430;61.646;24.704;2023-05-07T08:30:37;38.08;;;35.70;;
45714;SDS011;31430;61.646;24.704;2023-05-07T08:33:03;36.90;;;34.60;;
45714;SDS011;31430;61.646;24.704;2023-05-07T08:35:28;37.67;;;35.33;;
45714;SDS011;31430;61.646;24.704;2023-05-07T08:37:54;36.45;;;34.17;;
45714;SDS011;31430;61.646;24.704;2023-05-07T08:40:21;37.38;;;35.05;;
45714;SDS011;31430;61.646;24.704;2023-05-07T08:42:50;37.10;;;34.80;;
45714;SDS011;31430;61.646;24.704;2023-05-07T08:45:17;35.85;;;33.63;;
45714;SDS011;31430;61.646;24.704;2023-05-07T08:47:46;35.95;;;33.72;;
45714;SDS011;31430;61.646;24.704;2023-05-07T08:50:16;35.80;;;33.58;;
45714;SDS011;31430;61.646;24.704;2023-05-07T08:52:42;35.47;;;33.28;;
45714;SDS011;31430;61.646;24.704;2023-05-07T08:55:08;36.22;;;33.95;;
45714;SDS011;31430;61.646;24.704;2023-05-07T08:57:35;35.20;;;33.00;;
45714;SDS011;31430;61.646;24.704;2023-05-07T09:00:01;34.22;;;32.10;;
45714;SDS011;31430;61.646;24.704;2023-05-07T09:02:28;35.70;;;33.47;;
45714;SDS011;31430;61.646;24.704;2023-05-07T09:04:54;35.53;;;33.33;;
45714;SDS011;31430;61.646;24.704;2023-05-07T09:07:20;36.08;;;33.83;;
45714;SDS011;31430;61.646;24.704;2023-05-07T09:09:47;35.15;;;32.95;;
45714;SDS011;31430;61.646;24.704;2023-05-07T09:12:13;34.22;;;32.10;;
45714;SDS011;31430;61.646;24.704;2023-05-07T09:14:39;34.22;;;32.10;;
45714;SDS011;31430;61.646;24.704;2023-05-07T09:17:04;33.63;;;31.52;;
45714;SDS011;31430;61.646;24.704;2023-05-07T09:19:30;34.67;;;32.50;;
45714;SDS011;31430;61.646;24.704;2023-05-07T09:22:02;34.33;;;32.20;;
45714;SDS011;31430;61.646;24.704;2023-05-07T09:24:30;34.42;;;32.28;;
45714;SDS011;31430;61.646;24.704;2023-05-07T09:27:00;33.67;;;31.58;;
45714;SDS011;31430;61.646;24.704;2023-05-07T09:29:27;34.47;;;32.33;;
45714;SDS011;31430;61.646;24.704;2023-05-07T09:32:00;33.60;;;31.50;;
45714;SDS011;31430;61.646;24.704;2023-05-07T09:34:30;33.55;;;31.45;;
45714;SDS011;31430;61.646;24.704;2023-05-07T09:36:58;33.65;;;31.55;;
45714;SDS011;31430;61.646;24.704;2023-05-07T09:39:25;34.47;;;32.33;;
45714;SDS011;31430;61.646;24.704;2023-05-07T09:41:51;33.97;;;31.88;;
45714;SDS011;31430;61.646;24.704;2023-05-07T09:44:19;34.35;;;32.22;;
45714;SDS011;31430;61.646;24.704;2023-05-07T09:46:47;33.60;;;31.50;;
45714;SDS011;31430;61.646;24.704;2023-05-07T09:49:20;33.88;;;31.77;;
45714;SDS011;31430;61.646;24.704;2023-05-07T09:51:49;33.50;;;31.40;;
45714;SDS011;31430;61.646;24.704;2023-05-07T09:54:16;32.58;;;30.55;;
45714;SDS011;31430;61.646;24.704;2023-05-07T09:56:43;32.05;;;30.05;;
45714;SDS011;31430;61.646;24.704;2023-05-07T09:59:10;33.58;;;31.48;;
45714;SDS011;31430;61.646;24.704;2023-05-07T10:01:38;32.80;;;30.75;;
45714;SDS011;31430;61.646;24.704;2023-05-07T10:04:06;31.73;;;29.73;;
45714;SDS011;31430;61.646;24.704;2023-05-07T10:06:34;33.10;;;31.02;;
45714;SDS011;31430;61.646;24.704;2023-05-07T10:09:00;32.40;;;30.40;;
45714;SDS011;31430;61.646;24.704;2023-05-07T10:11:27;33.22;;;31.13;;
45714;SDS011;31430;61.646;24.704;2023-05-07T10:13:53;32.35;;;30.35;;
45714;SDS011;31430;61.646;24.704;2023-05-07T10:16:20;32.55;;;30.52;;
45714;SDS011;31430;61.646;24.704;2023-05-07T10:18:46;31.70;;;29.70;;
45714;SDS011;31430;61.646;24.704;2023-05-07T10:21:19;32.90;;;30.85;;
45714;SDS011;31430;61.646;24.704;2023-05-07T10:23:49;32.30;;;30.30;;
45714;SDS011;31430;61.646;24.704;2023-05-07T10:26:27;33.33;;;31.23;;
45714;SDS011;31430;61.646;24.704;2023-05-07T10:28:58;32.33;;;30.33;;
45714;SDS011;31430;61.646;24.704;2023-05-07T10:34:07;32.72;;;30.70;;
45714;SDS011;31430;61.646;24.704;2023-05-07T10:36:36;32.55;;;30.52;;
45714;SDS011;31430;61.646;24.704;2023-05-07T10:39:02;31.63;;;29.63;;
45714;SDS011;31430;61.646;24.704;2023-05-07T10:41:28;30.92;;;29.00;;
45714;SDS011;31430;61.646;24.704;2023-05-07T10:43:53;31.70;;;29.70;;
45714;SDS011;31430;61.646;24.704;2023-05-07T10:46:20;31.15;;;29.20;;
45714;SDS011;31430;61.646;24.704;2023-05-07T10:51:28;32.03;;;30.02;;
45714;SDS011;31430;61.646;24.704;2023-05-07T10:56:41;32.13;;;30.13;;
45714;SDS011;31430;61.646;24.704;2023-05-07T11:04:29;29.83;;;27.95;;
45714;SDS011;31430;61.646;24.704;2023-05-07T11:15:02;30.73;;;28.83;;
45714;SDS011;31430;61.646;24.704;2023-05-07T11:17:53;31.58;;;29.58;;
45714;SDS011;31430;61.646;24.704;2023-05-07T11:26:02;30.60;;;28.70;;
45714;SDS011;31430;61.646;24.704;2023-05-07T11:28:39;30.48;;;28.58;;
45714;SDS011;31430;61.646;24.704;2023-05-07T11:31:06;30.48;;;28.58;;
45714;SDS011;31430;61.646;24.704;2023-05-07T11:35:59;31.80;;;29.80;;
45714;SDS011;31430;61.646;24.704;2023-05-07T11:45:43;32.92;;;30.88;;
45714;SDS011;31430;61.646;24.704;2023-05-07T11:48:11;31.63;;;29.63;;
45714;SDS011;31430;61.646;24.704;2023-05-07T11:50:49;31.17;;;29.23;;
45714;SDS011;31430;61.646;24.704;2023-05-07T11:53:17;30.30;;;28.40;;
45714;SDS011;31430;61.646;24.704;2023-05-07T11:55:44;29.88;;;28.00;;
45714;SDS011;31430;61.646;24.704;2023-05-07T11:58:11;29.20;;;27.40;;
45714;SDS011;31430;61.646;24.704;2023-05-07T12:00:48;29.55;;;27.70;;
45714;SDS011;31430;61.646;24.704;2023-05-07T12:03:15;30.10;;;28.20;;
45714;SDS011;31430;61.646;24.704;2023-05-07T12:05:40;27.83;;;26.08;;
45714;SDS011;31430;61.646;24.704;2023-05-07T12:10:32;31.20;;;29.25;;
45714;SDS011;31430;61.646;24.704;2023-05-07T12:12:58;28.95;;;27.15;;
45714;SDS011;31430;61.646;24.704;2023-05-07T12:15:23;28.90;;;27.10;;
45714;SDS011;31430;61.646;24.704;2023-05-07T12:17:49;28.88;;;27.08;;
45714;SDS011;31430;61.646;24.704;2023-05-07T12:20:17;29.00;;;27.20;;
45714;SDS011;31430;61.646;24.704;2023-05-07T12:22:44;28.70;;;26.90;;
45714;SDS011;31430;61.646;24.704;2023-05-07T12:25:10;28.20;;;26.42;;
45714;SDS011;31430;61.646;24.704;2023-05-07T12:27:38;28.25;;;26.45;;
45714;SDS011;31430;61.646;24.704;2023-05-07T12:30:05;29.52;;;27.67;;
45714;SDS011;31430;61.646;24.704;2023-05-07T12:35:01;30.48;;;28.58;;
45714;SDS011;31430;61.646;24.704;2023-05-07T12:37:27;28.95;;;27.15;;
45714;SDS011;31430;61.646;24.704;2023-05-07T12:42:38;30.48;;;28.58;;
45714;SDS011;31430;61.646;24.704;2023-05-07T12:45:11;30.42;;;28.52;;
45714;SDS011;31430;61.646;24.704;2023-05-07T12:47:37;28.85;;;27.05;;
45714;SDS011;31430;61.646;24.704;2023-05-07T12:50:06;29.10;;;27.30;;
45714;SDS011;31430;61.646;24.704;2023-05-07T12:52:32;28.88;;;27.08;;
45714;SDS011;31430;61.646;24.704;2023-05-07T12:55:04;28.77;;;26.98;;
45714;SDS011;31430;61.646;24.704;2023-05-07T12:57:37;27.38;;;25.67;;
45714;SDS011;31430;61.646;24.704;2023-05-07T13:00:04;27.70;;;25.98;;
45714;SDS011;31430;61.646;24.704;2023-05-07T13:02:34;28.42;;;26.63;;
45714;SDS011;31430;61.646;24.704;2023-05-07T13:05:02;28.90;;;27.10;;
45714;SDS011;31430;61.646;24.704;2023-05-07T13:07:28;27.90;;;26.15;;
45714;SDS011;31430;61.646;24.704;2023-05-07T13:09:53;26.77;;;25.08;;
45714;SDS011;31430;61.646;24.704;2023-05-07T13:12:19;27.20;;;25.50;;
45714;SDS011;31430;61.646;24.704;2023-05-07T13:14:45;27.17;;;25.48;;
45714;SDS011;31430;61.646;24.704;2023-05-07T13:17:11;27.02;;;25.33;;
45714;SDS011;31430;61.646;24.704;2023-05-07T13:19:36;27.10;;;25.40;;
45714;SDS011;31430;61.646;24.704;2023-05-07T13:22:05;27.98;;;26.23;;
45714;SDS011;31430;61.646;24.704;2023-05-07T13:24:31;26.48;;;24.80;;
45714;SDS011;31430;61.646;24.704;2023-05-07T13:26:56;26.75;;;25.05;;
45714;SDS011;31430;61.646;24.704;2023-05-07T13:29:22;27.95;;;26.20;;
45714;SDS011;31430;61.646;24.704;2023-05-07T13:31:54;26.85;;;25.15;;
45714;SDS011;31430;61.646;24.704;2023-05-07T13:34:23;29.00;;;27.20;;
45714;SDS011;31430;61.646;24.704;2023-05-07T13:36:49;26.85;;;25.15;;
45714;SDS011;31430;61.646;24.704;2023-05-07T13:39:15;27.55;;;25.85;;
45714;SDS011;31430;61.646;24.704;2023-05-07T13:41:41;27.90;;;26.15;;
45714;SDS011;31430;61.646;24.704;2023-05-07T13:44:06;27.77;;;26.05;;
45714;SDS011;31430;61.646;24.704;2023-05-07T13:46:32;28.70;;;26.90;;
45714;SDS011;31430;61.646;24.704;2023-05-07T13:48:58;27.67;;;25.98;;
45714;SDS011;31430;61.646;24.704;2023-05-07T13:51:23;27.90;;;26.15;;
45714;SDS011;31430;61.646;24.704;2023-05-07T13:53:49;28.17;;;26.40;;
45714;SDS011;31430;61.646;24.704;2023-05-07T13:56:15;27.92;;;26.17;;
45714;SDS011;31430;61.646;24.704;2023-05-07T13:58:41;28.10;;;26.33;;
45714;SDS011;31430;61.646;24.704;2023-05-07T14:01:06;28.92;;;27.13;;
45714;SDS011;31430;61.646;24.704;2023-05-07T14:03:32;27.85;;;26.10;;
45714;SDS011;31430;61.646;24.704;2023-05-07T14:10:52;30.55;;;28.65;;
45714;SDS011;31430;61.646;24.704;2023-05-07T14:13:17;29.02;;;27.23;;
45714;SDS011;31430;61.646;24.704;2023-05-07T14:15:43;27.77;;;26.05;;
45714;SDS011;31430;61.646;24.704;2023-05-07T14:18:11;29.70;;;27.83;;
45714;SDS011;31430;61.646;24.704;2023-05-07T14:20:37;27.63;;;25.92;;
45714;SDS011;31430;61.646;24.704;2023-05-07T14:23:03;27.55;;;25.85;;
45714;SDS011;31430;61.646;24.704;2023-05-07T14:25:29;28.58;;;26.77;;
45714;SDS011;31430;61.646;24.704;2023-05-07T14:27:55;28.30;;;26.50;;
45714;SDS011;31430;61.646;24.704;2023-05-07T14:30:21;28.30;;;26.50;;
45714;SDS011;31430;61.646;24.704;2023-05-07T14:32:49;28.85;;;27.05;;
45714;SDS011;31430;61.646;24.704;2023-05-07T14:35:15;28.52;;;26.73;;
45714;SDS011;31430;61.646;24.704;2023-05-07T14:37:41;27.40;;;25.70;;
45714;SDS011;31430;61.646;24.704;2023-05-07T14:40:08;28.52;;;26.73;;
45714;SDS011;31430;61.646;24.704;2023-05-07T14:42:34;27.10;;;25.40;;
45714;SDS011;31430;61.646;24.704;2023-05-07T14:45:00;27.27;;;25.58;;
45714;SDS011;31430;61.646;24.704;2023-05-07T14:47:25;27.63;;;25.92;;
45714;SDS011;31430;61.646;24.704;2023-05-07T14:49:51;28.60;;;26.80;;
45714;SDS011;31430;61.646;24.704;2023-05-07T14:52:18;29.05;;;27.25;;
45714;SDS011;31430;61.646;24.704;2023-05-07T14:54:43;27.85;;;26.10;;
45714;SDS011;31430;61.646;24.704;2023-05-07T14:57:10;29.42;;;27.60;;
45714;SDS011;31430;61.646;24.704;2023-05-07T14:59:38;28.80;;;27.00;;
45714;SDS011;31430;61.646;24.704;2023-05-07T15:02:04;28.05;;;26.30;;
45714;SDS011;31430;61.646;24.704;2023-05-07T15:04:32;28.40;;;26.60;;
45714;SDS011;31430;61.646;24.704;2023-05-07T15:06:58;28.45;;;26.65;;
45714;SDS011;31430;61.646;24.704;2023-05-07T15:11:50;29.10;;;27.30;;
45714;SDS011;31430;61.646;24.704;2023-05-07T15:14:16;28.52;;;26.73;;
45714;SDS011;31430;61.646;24.704;2023-05-07T15:16:42;28.40;;;26.60;;
45714;SDS011;31430;61.646;24.704;2023-05-07T15:19:07;29.00;;;27.20;;
45714;SDS011;31430;61.646;24.704;2023-05-07T15:21:33;29.20;;;27.40;;
45714;SDS011;31430;61.646;24.704;2023-05-07T15:24:00;28.70;;;26.90;;
45714;SDS011;31430;61.646;24.704;2023-05-07T15:26:27;27.50;;;25.80;;
45714;SDS011;31430;61.646;24.704;2023-05-07T15:28:52;27.23;;;25.52;;
45714;SDS011;31430;61.646;24.704;2023-05-07T15:31:20;28.92;;;27.13;;
45714;SDS011;31430;61.646;24.704;2023-05-07T15:33:46;28.17;;;26.40;;
45714;SDS011;31430;61.646;24.704;2023-05-07T15:36:12;28.95;;;27.15;;
45714;SDS011;31430;61.646;24.704;2023-05-07T15:38:38;28.20;;;26.42;;
45714;SDS011;31430;61.646;24.704;2023-05-07T15:41:03;28.38;;;26.58;;
45714;SDS011;31430;61.646;24.704;2023-05-07T15:43:29;27.77;;;26.05;;
45714;SDS011;31430;61.646;24.704;2023-05-07T15:45:55;27.75;;;26.02;;
45714;SDS011;31430;61.646;24.704;2023-05-07T15:48:21;27.98;;;26.23;;
45714;SDS011;31430;61.646;24.704;2023-05-07T15:50:46;27.77;;;26.05;;
45714;SDS011;31430;61.646;24.704;2023-05-07T15:53:12;28.60;;;26.80;;
45714;SDS011;31430;61.646;24.704;2023-05-07T15:55:39;27.15;;;25.45;;
45714;SDS011;31430;61.646;24.704;2023-05-07T15:58:07;28.95;;;27.15;;
45714;SDS011;31430;61.646;24.704;2023-05-07T16:00:33;27.13;;;25.42;;
45714;SDS011;31430;61.646;24.704;2023-05-07T16:03:00;28.40;;;26.60;;
45714;SDS011;31430;61.646;24.704;2023-05-07T16:05:26;28.50;;;26.70;;
45714;SDS011;31430;61.646;24.704;2023-05-07T16:07:51;27.88;;;26.13;;
45714;SDS011;31430;61.646;24.704;2023-05-07T16:10:17;27.95;;;26.20;;
45714;SDS011;31430;61.646;24.704;2023-05-07T16:12:43;27.15;;;25.45;;
45714;SDS011;31430;61.646;24.704;2023-05-07T16:15:08;27.10;;;25.40;;
45714;SDS011;31430;61.646;24.704;2023-05-07T16:17:34;28.80;;;27.00;;
45714;SDS011;31430;61.646;24.704;2023-05-07T16:20:01;28.63;;;26.83;;
45714;SDS011;31430;61.646;24.704;2023-05-07T16:22:30;28.65;;;26.85;;
45714;SDS011;31430;61.646;24.704;2023-05-07T16:24:57;27.38;;;25.67;;
45714;SDS011;31430;61.646;24.704;2023-05-07T16:27:22;27.80;;;26.08;;
45714;SDS011;31430;61.646;24.704;2023-05-07T16:29:48;28.05;;;26.27;;